Time;durP1;ratioP1;P1;durP2;ratioP2;P2;SDS_P1;SDS_P2;PMS_P1;PMS_P2;Temp;Humidity;BMP_temperature;BMP_pressure;BME280_temperature;BME280_humidity;BME280_pressure;Samples;Min_cycle;Max_cycle;Signal;HPM_P1;HPM_P2
2023/01/02 00:00:19;;;;;;;129.10;76.07;;;;;;;;;;6275685;22;20046;-68
2023/01/02 00:02:45;;;;;;;130.80;74.93;;;;;;;;;;6275889;22;20000;-69
2023/01/02 00:05:11;;;;;;;129.90;77.82;;;;;;;;;;6276166;22;20013;-68
2023/01/02 00:07:37;;;;;;;134.35;78.38;;;;;;;;;;6275863;22;20003;-69
2023/01/02 00:10:03;;;;;;;133.75;77.22;;;;;;;;;;6275680;22;20007;-68
2023/01/02 00:12:29;;;;;;;127.72;73.60;;;;;;;;;;6275791;22;20023;-69
2023/01/02 00:14:55;;;;;;;126.95;76.35;;;;;;;;;;6275657;22;20000;-69
2023/01/02 00:17:21;;;;;;;122.97;72.97;;;;;;;;;;6275719;22;20003;-69
2023/01/02 00:19:47;;;;;;;124.35;74.88;;;;;;;;;;6275762;22;20012;-69
2023/01/02 00:22:13;;;;;;;130.88;75.15;;;;;;;;;;6275698;22;19996;-68
2023/01/02 00:24:39;;;;;;;132.18;76.63;;;;;;;;;;6275778;22;20004;-68
2023/01/02 00:27:05;;;;;;;136.02;76.03;;;;;;;;;;6275609;22;20034;-68
2023/01/02 00:29:31;;;;;;;116.38;72.40;;;;;;;;;;6275787;22;20000;-68
2023/01/02 00:31:58;;;;;;;126.60;74.82;;;;;;;;;;6275892;22;20115;-68
2023/01/02 00:34:25;;;;;;;143.35;77.22;;;;;;;;;;6275778;22;20078;-68
2023/01/02 00:36:51;;;;;;;127.80;76.20;;;;;;;;;;6276194;22;20000;-68
2023/01/02 00:39:17;;;;;;;134.68;77.22;;;;;;;;;;6277270;22;20018;-68
2023/01/02 00:41:43;;;;;;;138.68;79.20;;;;;;;;;;6278003;22;20075;-68
2023/01/02 00:44:09;;;;;;;137.07;77.88;;;;;;;;;;6278170;22;20381;-67
2023/01/02 00:46:35;;;;;;;134.65;75.07;;;;;;;;;;6277736;22;19996;-68
2023/01/02 00:49:01;;;;;;;131.38;76.15;;;;;;;;;;6277850;22;20059;-70
2023/01/02 00:51:27;;;;;;;119.15;72.22;;;;;;;;;;6277901;22;20061;-68
2023/01/02 00:53:53;;;;;;;135.32;75.93;;;;;;;;;;6277354;22;20004;-69
2023/01/02 00:56:19;;;;;;;129.40;74.20;;;;;;;;;;6277446;22;19995;-68
2023/01/02 00:58:46;;;;;;;133.35;77.30;;;;;;;;;;6277067;22;20330;-68
2023/01/02 01:01:12;;;;;;;133.18;80.03;;;;;;;;;;6277469;22;20004;-68
2023/01/02 01:03:38;;;;;;;135.73;79.93;;;;;;;;;;6277714;22;20000;-68
2023/01/02 01:06:08;;;;;;;135.25;78.35;;;;;;;;;;6277469;22;20003;-68
2023/01/02 01:08:35;;;;;;;130.82;77.63;;;;;;;;;;6277597;22;19999;-68
2023/01/02 01:11:04;;;;;;;127.05;76.32;;;;;;;;;;6277877;22;20099;-68
2023/01/02 01:13:31;;;;;;;131.52;75.47;;;;;;;;;;6277586;22;20014;-68
2023/01/02 01:16:02;;;;;;;140.60;79.82;;;;;;;;;;6277630;22;20019;-68
2023/01/02 01:18:28;;;;;;;141.40;78.47;;;;;;;;;;6277285;22;20007;-68
2023/01/02 01:20:54;;;;;;;146.50;80.20;;;;;;;;;;6277210;22;20261;-68
2023/01/02 01:23:22;;;;;;;138.20;77.35;;;;;;;;;;6277602;22;20007;-69
2023/01/02 01:25:48;;;;;;;132.25;78.25;;;;;;;;;;6277479;22;20039;-68
2023/01/02 01:28:14;;;;;;;129.20;77.25;;;;;;;;;;6277373;22;20008;-68
2023/01/02 01:30:40;;;;;;;138.55;78.80;;;;;;;;;;6277527;22;20325;-68
2023/01/02 01:33:06;;;;;;;131.95;79.65;;;;;;;;;;6277096;22;19999;-67
2023/01/02 01:35:33;;;;;;;144.05;80.20;;;;;;;;;;6277058;22;19999;-69
2023/01/02 01:37:59;;;;;;;136.52;77.93;;;;;;;;;;6277319;22;20303;-68
2023/01/02 01:40:25;;;;;;;145.73;82.20;;;;;;;;;;6277407;22;20011;-68
2023/01/02 01:42:51;;;;;;;141.85;81.32;;;;;;;;;;6277113;22;19999;-68
2023/01/02 01:45:17;;;;;;;136.68;78.68;;;;;;;;;;6277300;22;20053;-68
2023/01/02 01:47:46;;;;;;;140.70;78.45;;;;;;;;;;6277656;22;20000;-68
2023/01/02 01:50:15;;;;;;;138.95;80.55;;;;;;;;;;6277121;22;20290;-69
2023/01/02 01:52:45;;;;;;;147.43;82.50;;;;;;;;;;6277456;22;20299;-68
2023/01/02 01:55:29;;;;;;;143.20;78.60;;;;;;;;;;6277036;22;20000;-68
2023/01/02 01:58:01;;;;;;;140.70;79.93;;;;;;;;;;6275898;22;20445;-68
2023/01/02 02:00:27;;;;;;;143.57;80.63;;;;;;;;;;6246647;22;20022;-69
2023/01/02 02:02:57;;;;;;;146.00;79.63;;;;;;;;;;6273620;22;20521;-68
2023/01/02 02:05:24;;;;;;;147.10;79.85;;;;;;;;;;6275797;22;20014;-74
2023/01/02 02:08:04;;;;;;;152.15;81.00;;;;;;;;;;6276981;22;20004;-68
2023/01/02 02:10:30;;;;;;;144.05;80.43;;;;;;;;;;6277060;22;19996;-68
2023/01/02 02:12:56;;;;;;;149.20;80.20;;;;;;;;;;6276424;22;20008;-69
2023/01/02 02:15:26;;;;;;;147.65;79.35;;;;;;;;;;6249246;22;20027;-69
2023/01/02 02:18:18;;;;;;;144.35;79.60;;;;;;;;;;6276590;22;20003;-69
2023/01/02 02:20:44;;;;;;;152.68;80.57;;;;;;;;;;6276280;22;20130;-69
2023/01/02 02:23:20;;;;;;;147.68;81.47;;;;;;;;;;6276627;22;20031;-68
2023/01/02 02:25:51;;;;;;;146.20;81.68;;;;;;;;;;6276796;22;20004;-68
2023/01/02 02:28:38;;;;;;;144.68;80.43;;;;;;;;;;6249206;22;20383;-68
2023/01/02 02:31:24;;;;;;;142.60;78.45;;;;;;;;;;6276655;22;20011;-68
2023/01/02 02:33:50;;;;;;;151.95;82.75;;;;;;;;;;6229636;22;20010;-68
2023/01/02 02:36:39;;;;;;;162.85;83.47;;;;;;;;;;6276242;22;19999;-68
2023/01/02 02:39:11;;;;;;;160.10;82.90;;;;;;;;;;6276415;22;20457;-69
2023/01/02 02:41:46;;;;;;;161.05;84.50;;;;;;;;;;6276297;22;20049;-68
2023/01/02 02:44:31;;;;;;;156.25;81.25;;;;;;;;;;6276306;22;20010;-68
2023/01/02 02:47:03;;;;;;;151.90;82.07;;;;;;;;;;6249442;22;19996;-68
2023/01/02 02:49:41;;;;;;;150.27;79.68;;;;;;;;;;6276646;22;20004;-69
2023/01/02 02:52:07;;;;;;;154.23;81.15;;;;;;;;;;6277178;22;19999;-68
2023/01/02 02:54:53;;;;;;;151.25;79.13;;;;;;;;;;6276801;22;19999;-68
2023/01/02 02:57:19;;;;;;;151.35;79.95;;;;;;;;;;6249673;22;20031;-68
2023/01/02 02:59:45;;;;;;;142.95;80.28;;;;;;;;;;6276000;22;20090;-68
2023/01/02 03:02:14;;;;;;;150.75;80.25;;;;;;;;;;6276713;22;20000;-68
2023/01/02 03:04:41;;;;;;;146.02;79.72;;;;;;;;;;6276333;22;20079;-70
2023/01/02 03:07:12;;;;;;;149.10;79.30;;;;;;;;;;6276544;22;20399;-68
2023/01/02 03:09:44;;;;;;;151.90;80.28;;;;;;;;;;6276705;22;20015;-68
2023/01/02 03:12:24;;;;;;;154.32;78.80;;;;;;;;;;6276509;22;20057;-68
2023/01/02 03:14:53;;;;;;;145.45;79.32;;;;;;;;;;6276031;22;20011;-68
2023/01/02 03:17:26;;;;;;;151.73;79.57;;;;;;;;;;6276329;22;20483;-68
2023/01/02 03:19:52;;;;;;;;;;;;;;;;;;6276873;22;20012;-68
2023/01/02 03:22:19;;;;;;;144.52;77.78;;;;;;;;;;6276514;22;20365;-69
2023/01/02 03:24:47;;;;;;;150.52;80.07;;;;;;;;;;6276214;22;20375;-68
2023/01/02 03:27:17;;;;;;;151.45;81.55;;;;;;;;;;6275996;22;20378;-68
2023/01/02 03:29:44;;;;;;;158.63;82.03;;;;;;;;;;6276430;22;20091;-68
2023/01/02 03:32:14;;;;;;;154.77;83.03;;;;;;;;;;6276329;22;20303;-72
2023/01/02 03:34:43;;;;;;;156.15;82.78;;;;;;;;;;6275977;22;20488;-69
2023/01/02 03:37:14;;;;;;;149.55;79.05;;;;;;;;;;6275945;22;20386;-69
2023/01/02 03:39:43;;;;;;;165.75;81.40;;;;;;;;;;6276041;22;20011;-68
2023/01/02 03:42:13;;;;;;;158.45;84.72;;;;;;;;;;6276247;22;20006;-67
2023/01/02 03:44:42;;;;;;;160.80;84.18;;;;;;;;;;6276004;22;20010;-69
2023/01/02 03:47:16;;;;;;;161.95;83.63;;;;;;;;;;6275826;22;20003;-68
2023/01/02 03:49:44;;;;;;;156.63;83.68;;;;;;;;;;6275826;22;20034;-68
2023/01/02 03:52:10;;;;;;;155.40;81.93;;;;;;;;;;6275736;22;20054;-68
2023/01/02 03:54:37;;;;;;;143.52;77.53;;;;;;;;;;6275996;22;20011;-68
2023/01/02 03:57:08;;;;;;;145.50;77.57;;;;;;;;;;6275670;22;20058;-68
2023/01/02 03:59:45;;;;;;;146.88;79.68;;;;;;;;;;6275507;22;20012;-68
2023/01/02 04:02:13;;;;;;;154.73;81.03;;;;;;;;;;6275877;22;20090;-68
2023/01/02 04:04:59;;;;;;;152.30;81.13;;;;;;;;;;6276137;22;20027;-68
2023/01/02 04:07:28;;;;;;;154.30;81.30;;;;;;;;;;6274289;22;20373;-68
2023/01/02 04:09:55;;;;;;;159.65;82.68;;;;;;;;;;6275580;22;20011;-71
2023/01/02 04:12:23;;;;;;;151.15;79.10;;;;;;;;;;6275737;22;20053;-69
2023/01/02 04:14:53;;;;;;;156.50;83.15;;;;;;;;;;6276085;22;20295;-68
2023/01/02 04:17:20;;;;;;;154.10;84.47;;;;;;;;;;6276038;22;20307;-69
2023/01/02 04:19:48;;;;;;;152.50;80.60;;;;;;;;;;6276031;22;20331;-67
2023/01/02 04:22:18;;;;;;;149.60;79.82;;;;;;;;;;6275520;22;20004;-69
2023/01/02 04:24:48;;;;;;;151.93;81.10;;;;;;;;;;6276097;22;20453;-69
2023/01/02 04:27:18;;;;;;;146.80;77.43;;;;;;;;;;6275487;22;20446;-68
2023/01/02 04:29:44;;;;;;;149.27;79.35;;;;;;;;;;6275394;22;20000;-69
2023/01/02 04:32:19;;;;;;;152.50;80.80;;;;;;;;;;6275593;22;20006;-69
2023/01/02 04:34:46;;;;;;;149.80;77.90;;;;;;;;;;6276039;22;20418;-69
2023/01/02 04:37:26;;;;;;;152.55;80.78;;;;;;;;;;6248583;22;20003;-69
2023/01/02 04:39:52;;;;;;;156.57;79.95;;;;;;;;;;6275863;22;20012;-72
2023/01/02 04:42:18;;;;;;;161.55;82.80;;;;;;;;;;6275630;22;19995;-68
2023/01/02 04:44:44;;;;;;;154.18;79.88;;;;;;;;;;6275930;22;20030;-69
2023/01/02 04:47:10;;;;;;;162.48;82.60;;;;;;;;;;6275789;22;20133;-68
2023/01/02 04:49:37;;;;;;;156.35;82.18;;;;;;;;;;6275655;22;20000;-69
2023/01/02 04:52:03;;;;;;;162.48;81.50;;;;;;;;;;6275803;22;19999;-68
2023/01/02 04:54:29;;;;;;;151.98;80.38;;;;;;;;;;6276129;22;20038;-68
2023/01/02 04:56:55;;;;;;;158.65;81.85;;;;;;;;;;6275796;22;20002;-69
2023/01/02 04:59:21;;;;;;;161.40;82.50;;;;;;;;;;6275391;22;20043;-68
2023/01/02 05:01:47;;;;;;;154.75;80.88;;;;;;;;;;6248580;22;20007;-69
2023/01/02 05:04:13;;;;;;;157.35;80.03;;;;;;;;;;6275561;22;20004;-69
2023/01/02 05:06:39;;;;;;;162.98;81.97;;;;;;;;;;6275621;22;20010;-68
2023/01/02 05:09:05;;;;;;;150.07;77.95;;;;;;;;;;6275739;22;20004;-69
2023/01/02 05:11:31;;;;;;;151.15;77.95;;;;;;;;;;6275462;22;20015;-68
2023/01/02 05:13:57;;;;;;;146.82;75.63;;;;;;;;;;6275844;22;20011;-69
2023/01/02 05:16:23;;;;;;;142.82;76.93;;;;;;;;;;6275478;22;20058;-70
2023/01/02 05:18:49;;;;;;;143.75;79.68;;;;;;;;;;6275184;22;20000;-69
2023/01/02 05:24:01;;;;;;;147.40;77.68;;;;;;;;;;6277030;22;20057;-76
2023/01/02 05:26:29;;;;;;;145.90;78.25;;;;;;;;;;6277305;22;20014;-69
2023/01/02 05:28:55;;;;;;;146.38;79.30;;;;;;;;;;6277616;22;20019;-69
2023/01/02 05:31:21;;;;;;;146.80;78.85;;;;;;;;;;6277472;22;19999;-68
2023/01/02 05:33:53;;;;;;;152.73;80.32;;;;;;;;;;6277268;22;19995;-69
2023/01/02 05:36:20;;;;;;;150.80;78.50;;;;;;;;;;6277432;22;20022;-69
2023/01/02 05:38:47;;;;;;;148.73;78.03;;;;;;;;;;6277243;22;20002;-69
2023/01/02 05:41:13;;;;;;;143.90;76.95;;;;;;;;;;6277144;22;20520;-69
2023/01/02 05:43:39;;;;;;;157.18;79.28;;;;;;;;;;6277508;22;20004;-68
2023/01/02 05:46:10;;;;;;;139.52;76.28;;;;;;;;;;6277430;22;19999;-68
2023/01/02 05:48:36;;;;;;;162.82;81.28;;;;;;;;;;6277064;22;20000;-68
2023/01/02 05:51:02;;;;;;;144.13;76.75;;;;;;;;;;6277211;22;20004;-68
2023/01/02 05:53:28;;;;;;;140.55;76.28;;;;;;;;;;6277045;22;20022;-69
2023/01/02 05:55:54;;;;;;;136.98;76.03;;;;;;;;;;6276995;22;20053;-69
2023/01/02 05:58:20;;;;;;;153.48;77.68;;;;;;;;;;6277145;22;19999;-69
2023/01/02 06:00:46;;;;;;;162.48;79.70;;;;;;;;;;6277025;22;20030;-68
2023/01/02 06:03:13;;;;;;;167.48;83.40;;;;;;;;;;6276808;22;20000;-68
2023/01/02 06:05:39;;;;;;;168.45;80.38;;;;;;;;;;6276966;22;20015;-68
2023/01/02 06:08:05;;;;;;;155.93;79.60;;;;;;;;;;6276808;22;20078;-68
2023/01/02 06:10:31;;;;;;;167.73;82.00;;;;;;;;;;6277083;22;20004;-68
2023/01/02 06:12:57;;;;;;;159.15;80.32;;;;;;;;;;6276906;22;20044;-69
2023/01/02 06:15:23;;;;;;;183.32;86.93;;;;;;;;;;6276903;22;20007;-70
2023/01/02 06:17:49;;;;;;;198.93;93.03;;;;;;;;;;6276933;22;20011;-67
2023/01/02 06:20:15;;;;;;;211.55;98.25;;;;;;;;;;6276776;22;20012;-73
2023/01/02 06:22:41;;;;;;;215.45;98.15;;;;;;;;;;6276987;22;20003;-68
2023/01/02 06:25:07;;;;;;;208.60;96.53;;;;;;;;;;6276865;22;20426;-69
2023/01/02 06:27:33;;;;;;;205.65;96.35;;;;;;;;;;6276614;22;20011;-68
2023/01/02 06:29:59;;;;;;;196.90;95.28;;;;;;;;;;6276805;22;20000;-68
2023/01/02 06:32:25;;;;;;;193.30;92.90;;;;;;;;;;6276599;22;20333;-68
2023/01/02 06:34:51;;;;;;;187.75;96.85;;;;;;;;;;6276924;22;20000;-69
2023/01/02 06:37:17;;;;;;;193.05;95.05;;;;;;;;;;6277242;22;20074;-69
2023/01/02 06:39:43;;;;;;;184.10;91.88;;;;;;;;;;6276879;22;20007;-68
2023/01/02 06:42:09;;;;;;;172.98;89.32;;;;;;;;;;6276805;22;20346;-68
2023/01/02 06:44:35;;;;;;;173.38;89.20;;;;;;;;;;6276477;22;20004;-69
2023/01/02 06:47:01;;;;;;;171.52;90.43;;;;;;;;;;6276916;22;20000;-68
2023/01/02 06:49:27;;;;;;;169.15;86.80;;;;;;;;;;6276887;22;19996;-68
2023/01/02 06:51:53;;;;;;;162.32;85.20;;;;;;;;;;6276503;22;20029;-68
2023/01/02 06:54:19;;;;;;;167.70;88.30;;;;;;;;;;6276880;22;20087;-68
2023/01/02 06:56:45;;;;;;;153.80;83.05;;;;;;;;;;6276717;22;20109;-69
2023/01/02 06:59:11;;;;;;;157.23;82.30;;;;;;;;;;6276511;22;20011;-69
2023/01/02 07:01:37;;;;;;;161.25;85.47;;;;;;;;;;6249097;22;20082;-68
2023/01/02 07:04:04;;;;;;;157.23;87.57;;;;;;;;;;6276646;22;20476;-68
2023/01/02 07:06:30;;;;;;;158.30;84.50;;;;;;;;;;6276460;22;19996;-68
2023/01/02 07:08:56;;;;;;;156.07;86.32;;;;;;;;;;6276414;22;20002;-69
2023/01/02 07:11:23;;;;;;;154.30;83.15;;;;;;;;;;6276311;22;20049;-69
2023/01/02 07:13:50;;;;;;;160.35;84.97;;;;;;;;;;6276446;22;20111;-67
2023/01/02 07:16:17;;;;;;;163.43;86.63;;;;;;;;;;6276611;22;20126;-69
2023/01/02 07:18:43;;;;;;;166.48;85.97;;;;;;;;;;6276157;22;20318;-68
2023/01/02 07:21:10;;;;;;;163.82;87.80;;;;;;;;;;6276088;22;20008;-68
2023/01/02 07:23:36;;;;;;;154.45;85.75;;;;;;;;;;6275991;22;20000;-68
2023/01/02 07:26:03;;;;;;;165.68;90.85;;;;;;;;;;6276748;22;20000;-68
2023/01/02 07:28:30;;;;;;;163.95;91.05;;;;;;;;;;6276418;22;20016;-68
2023/01/02 07:30:57;;;;;;;166.90;91.57;;;;;;;;;;6276225;22;20414;-69
2023/01/02 07:33:23;;;;;;;168.77;93.25;;;;;;;;;;6276176;22;20414;-68
2023/01/02 07:35:49;;;;;;;168.40;91.20;;;;;;;;;;6276138;22;20481;-68
2023/01/02 07:38:15;;;;;;;172.65;94.82;;;;;;;;;;6276386;22;20445;-68
2023/01/02 07:40:41;;;;;;;162.75;90.88;;;;;;;;;;6276381;22;20339;-68
2023/01/02 07:43:07;;;;;;;169.88;95.45;;;;;;;;;;6276119;22;20075;-70
2023/01/02 07:45:34;;;;;;;168.30;91.68;;;;;;;;;;6275881;22;20024;-69
2023/01/02 07:48:00;;;;;;;174.68;93.78;;;;;;;;;;6274560;22;20006;-67
2023/01/02 07:50:27;;;;;;;167.52;92.40;;;;;;;;;;6275673;22;20054;-68
2023/01/02 07:52:53;;;;;;;167.80;94.13;;;;;;;;;;6275504;22;20002;-69
2023/01/02 07:55:19;;;;;;;174.32;97.38;;;;;;;;;;6275804;22;20003;-67
2023/01/02 07:57:48;;;;;;;169.63;97.75;;;;;;;;;;6275796;22;20019;-68
2023/01/02 08:00:15;;;;;;;181.63;101.68;;;;;;;;;;6275850;22;20074;-67
2023/01/02 08:02:41;;;;;;;183.52;103.00;;;;;;;;;;6275515;22;20008;-67
2023/01/02 08:05:07;;;;;;;181.05;97.85;;;;;;;;;;6275033;22;20049;-67
2023/01/02 08:07:33;;;;;;;183.30;103.53;;;;;;;;;;6275395;22;20016;-68
2023/01/02 08:09:59;;;;;;;183.65;104.38;;;;;;;;;;6275247;22;20071;-68
2023/01/02 08:12:26;;;;;;;184.73;105.50;;;;;;;;;;6275390;22;20387;-68
2023/01/02 08:14:52;;;;;;;178.32;103.15;;;;;;;;;;6275327;22;20031;-68
2023/01/02 08:17:18;;;;;;;175.50;103.88;;;;;;;;;;6275454;22;19999;-67
2023/01/02 08:19:44;;;;;;;181.98;105.43;;;;;;;;;;6275249;22;20378;-68
2023/01/02 08:22:10;;;;;;;186.05;105.82;;;;;;;;;;6275824;22;20091;-68
2023/01/02 08:24:36;;;;;;;197.07;113.88;;;;;;;;;;6275317;22;20000;-68
2023/01/02 08:27:02;;;;;;;198.63;111.13;;;;;;;;;;6274947;22;20098;-68
2023/01/02 08:29:29;;;;;;;191.55;109.03;;;;;;;;;;6275778;22;20387;-69
2023/01/02 08:31:57;;;;;;;205.07;116.20;;;;;;;;;;6275423;22;20004;-68
2023/01/02 08:34:23;;;;;;;203.25;114.60;;;;;;;;;;6275487;22;20003;-68
2023/01/02 08:36:50;;;;;;;199.63;112.53;;;;;;;;;;6275269;22;20442;-68
2023/01/02 08:39:17;;;;;;;195.40;112.85;;;;;;;;;;6275511;22;20015;-68
2023/01/02 08:41:43;;;;;;;201.20;113.05;;;;;;;;;;6275499;22;20003;-69
2023/01/02 08:44:09;;;;;;;184.00;110.65;;;;;;;;;;6275337;22;20078;-68
2023/01/02 08:46:35;;;;;;;181.63;108.57;;;;;;;;;;6275339;22;20027;-68
2023/01/02 08:49:01;;;;;;;178.60;111.20;;;;;;;;;;6275181;22;20339;-68
2023/01/02 08:51:27;;;;;;;186.98;112.28;;;;;;;;;;6276091;22;20006;-69
2023/01/02 08:53:54;;;;;;;184.80;108.40;;;;;;;;;;6275516;22;20410;-69
2023/01/02 08:56:24;;;;;;;184.85;108.95;;;;;;;;;;6275580;22;20075;-68
2023/01/02 08:58:56;;;;;;;181.32;109.03;;;;;;;;;;6276744;22;19999;-69
2023/01/02 09:01:23;;;;;;;183.40;111.60;;;;;;;;;;6277608;22;20000;-69
2023/01/02 09:03:50;;;;;;;175.77;108.65;;;;;;;;;;6278039;22;20075;-68
2023/01/02 09:06:16;;;;;;;180.65;111.72;;;;;;;;;;6277589;22;20004;-68
2023/01/02 09:08:42;;;;;;;185.55;111.85;;;;;;;;;;6277363;22;20004;-69
2023/01/02 09:11:18;;;;;;;186.40;108.55;;;;;;;;;;6250155;22;20000;-69
2023/01/02 09:13:44;;;;;;;179.38;107.82;;;;;;;;;;6277223;22;20427;-68
2023/01/02 09:16:10;;;;;;;183.23;108.35;;;;;;;;;;6277195;22;20046;-71
2023/01/02 09:18:37;;;;;;;175.73;111.75;;;;;;;;;;6277868;22;20335;-69
2023/01/02 09:21:03;;;;;;;187.68;109.65;;;;;;;;;;6277510;22;20008;-68
2023/01/02 09:23:30;;;;;;;188.65;108.05;;;;;;;;;;6277665;22;20057;-68
2023/01/02 09:25:57;;;;;;;176.35;107.15;;;;;;;;;;6277796;22;20381;-69
2023/01/02 09:28:23;;;;;;;177.45;106.82;;;;;;;;;;6277497;22;20019;-68
2023/01/02 09:30:49;;;;;;;171.65;104.97;;;;;;;;;;6277323;22;20004;-69
2023/01/02 09:33:15;;;;;;;177.52;107.25;;;;;;;;;;6277675;22;20000;-68
2023/01/02 09:35:41;;;;;;;177.65;110.32;;;;;;;;;;6277340;22;20423;-67
2023/01/02 09:38:07;;;;;;;175.85;108.75;;;;;;;;;;6277278;22;20057;-68
2023/01/02 09:40:34;;;;;;;182.82;109.47;;;;;;;;;;6277283;22;20007;-68
2023/01/02 09:43:00;;;;;;;176.07;106.80;;;;;;;;;;6277118;22;20000;-68
2023/01/02 09:45:26;;;;;;;171.20;108.45;;;;;;;;;;6277806;22;20008;-70
2023/01/02 09:47:53;;;;;;;169.23;106.07;;;;;;;;;;6277212;22;20003;-69
2023/01/02 09:50:24;;;;;;;173.10;109.43;;;;;;;;;;6277161;22;19995;-69
2023/01/02 09:52:55;;;;;;;163.05;104.97;;;;;;;;;;6274206;22;20445;-68
2023/01/02 09:55:34;;;;;;;167.50;105.90;;;;;;;;;;6273678;22;20441;-69
2023/01/02 09:58:10;;;;;;;172.82;110.10;;;;;;;;;;6275578;22;19999;-69
2023/01/02 10:00:37;;;;;;;170.98;104.82;;;;;;;;;;6276774;22;20011;-69
2023/01/02 10:03:03;;;;;;;167.57;107.85;;;;;;;;;;6276937;22;20003;-68
2023/01/02 10:05:53;;;;;;;170.68;104.43;;;;;;;;;;6277342;22;20333;-68
2023/01/02 10:08:45;;;;;;;167.65;108.00;;;;;;;;;;6276866;22;20008;-69
2023/01/02 10:11:30;;;;;;;163.82;107.18;;;;;;;;;;6276774;22;20478;-68
2023/01/02 10:14:02;;;;;;;163.18;104.45;;;;;;;;;;6249469;22;20032;-68
2023/01/02 10:16:31;;;;;;;162.15;105.10;;;;;;;;;;6277048;22;20469;-68
2023/01/02 10:18:59;;;;;;;160.70;104.57;;;;;;;;;;6276792;22;19995;-68
2023/01/02 10:21:26;;;;;;;166.88;106.07;;;;;;;;;;6277348;22;20074;-67
2023/01/02 10:24:00;;;;;;;164.30;105.95;;;;;;;;;;6277386;22;19995;-68
2023/01/02 10:26:30;;;;;;;166.85;105.32;;;;;;;;;;6276690;22;20008;-67
2023/01/02 10:28:59;;;;;;;158.18;103.57;;;;;;;;;;6274390;22;20000;-68
2023/01/02 10:31:25;;;;;;;162.13;104.82;;;;;;;;;;6273522;22;20101;-68
2023/01/02 10:34:01;;;;;;;161.80;104.93;;;;;;;;;;6274714;22;20023;-68
2023/01/02 10:36:29;;;;;;;162.20;105.35;;;;;;;;;;6277251;22;20075;-67
2023/01/02 10:39:00;;;;;;;159.73;102.15;;;;;;;;;;6276297;22;20000;-68
2023/01/02 10:41:27;;;;;;;149.90;98.63;;;;;;;;;;6276718;22;20003;-68
2023/01/02 10:43:55;;;;;;;138.57;93.13;;;;;;;;;;6276961;22;20000;-68
2023/01/02 10:46:21;;;;;;;151.43;97.38;;;;;;;;;;6277430;22;20008;-68
2023/01/02 10:48:48;;;;;;;150.25;95.80;;;;;;;;;;6276798;22;20003;-68
2023/01/02 10:51:15;;;;;;;155.85;97.80;;;;;;;;;;6276335;22;20029;-67
2023/01/02 10:53:41;;;;;;;156.02;98.35;;;;;;;;;;6276869;22;20074;-68
2023/01/02 10:56:17;;;;;;;152.18;99.38;;;;;;;;;;6224565;22;20509;-67
2023/01/02 10:58:48;;;;;;;147.80;96.78;;;;;;;;;;6250127;22;20057;-67
2023/01/02 11:01:18;;;;;;;148.05;94.95;;;;;;;;;;6276836;22;20014;-67
2023/01/02 11:04:05;;;;;;;152.00;95.32;;;;;;;;;;6277084;22;19995;-67
2023/01/02 11:06:32;;;;;;;154.27;97.88;;;;;;;;;;6260821;22;20004;-68
2023/01/02 11:09:03;;;;;;;147.80;95.03;;;;;;;;;;6276820;22;20493;-67
2023/01/02 11:11:30;;;;;;;151.77;97.20;;;;;;;;;;6276598;22;20000;-67
2023/01/02 11:14:04;;;;;;;148.00;90.38;;;;;;;;;;6276855;22;20062;-68
2023/01/02 11:16:32;;;;;;;138.07;91.70;;;;;;;;;;6276439;22;20073;-68
2023/01/02 11:19:00;;;;;;;128.95;87.95;;;;;;;;;;6276609;22;20032;-68
2023/01/02 11:21:31;;;;;;;131.40;85.22;;;;;;;;;;6276363;22;20000;-67
2023/01/02 11:24:18;;;;;;;125.00;86.60;;;;;;;;;;6276716;22;20063;-68
2023/01/02 11:26:44;;;;;;;125.00;83.97;;;;;;;;;;6276378;22;20050;-68
2023/01/02 11:29:26;;;;;;;127.40;84.57;;;;;;;;;;6276702;22;19996;-68
2023/01/02 11:31:55;;;;;;;127.72;84.43;;;;;;;;;;6276261;22;20031;-68
2023/01/02 11:34:27;;;;;;;123.13;83.95;;;;;;;;;;6276354;22;20045;-68
2023/01/02 11:37:13;;;;;;;126.22;85.50;;;;;;;;;;6276468;22;20004;-68
2023/01/02 11:39:40;;;;;;;120.13;80.55;;;;;;;;;;6275973;22;20081;-67
2023/01/02 11:45:01;;;;;;;115.38;81.10;;;;;;;;;;6276218;22;20057;-67
2023/01/02 11:47:31;;;;;;;115.53;79.40;;;;;;;;;;6276283;22;20006;-67
2023/01/02 11:49:57;;;;;;;114.60;78.50;;;;;;;;;;6276325;22;20000;-68
2023/01/02 11:52:28;;;;;;;110.43;77.85;;;;;;;;;;6276612;22;20474;-67
2023/01/02 11:54:59;;;;;;;114.13;77.85;;;;;;;;;;6276259;22;20003;-68
2023/01/02 11:57:30;;;;;;;113.40;76.25;;;;;;;;;;6276141;22;19995;-68
2023/01/02 11:59:57;;;;;;;117.47;77.28;;;;;;;;;;6276132;22;20035;-68
2023/01/02 12:02:28;;;;;;;118.28;74.95;;;;;;;;;;6276526;22;20006;-67
2023/01/02 12:04:54;;;;;;;114.50;75.63;;;;;;;;;;6275906;22;20679;-67
2023/01/02 12:07:34;;;;;;;117.18;77.38;;;;;;;;;;6276057;22;20000;-67
2023/01/02 12:10:06;;;;;;;118.90;75.80;;;;;;;;;;6276402;22;20038;-67
2023/01/02 12:12:32;;;;;;;116.00;75.60;;;;;;;;;;6276262;22;20004;-67
2023/01/02 12:15:05;;;;;;;115.30;72.22;;;;;;;;;;6276088;22;20453;-67
2023/01/02 12:17:31;;;;;;;112.47;73.97;;;;;;;;;;6276056;22;20004;-67
2023/01/02 12:20:04;;;;;;;107.97;72.18;;;;;;;;;;6276303;22;20019;-67
2023/01/02 12:22:33;;;;;;;106.18;71.70;;;;;;;;;;6275767;22;19996;-68
2023/01/02 12:25:13;;;;;;;107.38;68.57;;;;;;;;;;6276306;22;20003;-67
2023/01/02 12:27:50;;;;;;;111.57;71.60;;;;;;;;;;6275806;22;20014;-67
2023/01/02 12:30:17;;;;;;;106.70;70.13;;;;;;;;;;6276178;22;20071;-67
2023/01/02 12:32:55;;;;;;;113.03;71.13;;;;;;;;;;6278181;22;19999;-67
2023/01/02 12:35:30;;;;;;;115.00;71.13;;;;;;;;;;6279389;22;20006;-67
2023/01/02 12:38:02;;;;;;;111.72;70.13;;;;;;;;;;6279468;22;20007;-67
2023/01/02 12:40:34;;;;;;;103.25;66.70;;;;;;;;;;6279317;22;20015;-68
2023/01/02 12:43:18;;;;;;;95.00;63.58;;;;;;;;;;6279622;22;19999;-67
2023/01/02 12:46:03;;;;;;;101.57;63.30;;;;;;;;;;6279094;22;20000;-67
2023/01/02 12:48:44;;;;;;;97.63;61.40;;;;;;;;;;6279178;22;19996;-68
2023/01/02 12:51:10;;;;;;;99.47;62.25;;;;;;;;;;6279192;22;20000;-68
2023/01/02 12:53:36;;;;;;;98.72;63.08;;;;;;;;;;6279360;22;20046;-68
2023/01/02 12:56:12;;;;;;;92.50;62.35;;;;;;;;;;6279715;22;20003;-67
2023/01/02 12:58:45;;;;;;;92.07;61.03;;;;;;;;;;6279435;22;19999;-66
2023/01/02 13:01:40;;;;;;;93.43;61.17;;;;;;;;;;6279316;22;20380;-67
2023/01/02 13:04:17;;;;;;;97.13;63.60;;;;;;;;;;6197365;22;20005;-67
2023/01/02 13:06:50;;;;;;;97.05;62.40;;;;;;;;;;6279253;22;20024;-67
2023/01/02 13:09:22;;;;;;;101.30;65.38;;;;;;;;;;6279184;22;20031;-65
2023/01/02 13:11:51;;;;;;;95.15;61.90;;;;;;;;;;6278802;22;20007;-68
2023/01/02 13:14:23;;;;;;;100.63;64.20;;;;;;;;;;6279048;22;20012;-68
2023/01/02 13:16:52;;;;;;;92.20;61.63;;;;;;;;;;6279240;22;20010;-67
2023/01/02 13:19:48;;;;;;;91.68;61.50;;;;;;;;;;6251900;22;20061;-67
2023/01/02 13:22:20;;;;;;;94.82;61.83;;;;;;;;;;6259916;22;20065;-68
2023/01/02 13:24:46;;;;;;;106.03;62.92;;;;;;;;;;6251992;22;20045;-68
2023/01/02 13:27:13;;;;;;;95.43;61.55;;;;;;;;;;6278909;22;20065;-67
2023/01/02 13:29:40;;;;;;;96.70;60.55;;;;;;;;;;6252063;22;20326;-67
2023/01/02 13:32:08;;;;;;;104.65;62.85;;;;;;;;;;6279317;22;20033;-67
2023/01/02 13:34:36;;;;;;;99.00;59.85;;;;;;;;;;6279245;22;20059;-68
2023/01/02 13:37:02;;;;;;;100.20;61.67;;;;;;;;;;6279463;22;20004;-67
2023/01/02 13:39:31;;;;;;;95.60;61.47;;;;;;;;;;6278744;22;20089;-69
2023/01/02 13:44:49;;;;;;;102.13;62.50;;;;;;;;;;6277264;22;20014;-67
2023/01/02 13:47:18;;;;;;;101.93;62.28;;;;;;;;;;6277596;22;20426;-68
2023/01/02 13:49:47;;;;;;;97.28;58.38;;;;;;;;;;6277350;22;20430;-67
2023/01/02 13:52:14;;;;;;;94.25;58.05;;;;;;;;;;6277383;22;20055;-67
2023/01/02 13:55:00;;;;;;;98.15;62.10;;;;;;;;;;6277340;22;20004;-67
2023/01/02 13:57:26;;;;;;;96.10;60.33;;;;;;;;;;6277208;22;20000;-68
2023/01/02 14:00:04;;;;;;;101.03;62.05;;;;;;;;;;6277394;22;20018;-69
2023/01/02 14:02:30;;;;;;;98.65;60.72;;;;;;;;;;6277226;22;19996;-70
2023/01/02 14:04:56;;;;;;;92.32;57.20;;;;;;;;;;6276755;22;20000;-67
2023/01/02 14:07:25;;;;;;;81.82;53.42;;;;;;;;;;6276921;22;20031;-68
2023/01/02 14:10:27;;;;;;;87.20;54.90;;;;;;;;;;6277292;22;20086;-68
2023/01/02 14:12:58;;;;;;;82.90;51.53;;;;;;;;;;6183901;23;20001;-68
2023/01/02 14:15:25;;;;;;;80.07;49.58;;;;;;;;;;6262095;22;20082;-67
2023/01/02 14:18:02;;;;;;;80.63;51.03;;;;;;;;;;6276689;22;19999;-70
2023/01/02 14:20:31;;;;;;;79.45;49.40;;;;;;;;;;6277142;22;20011;-68
2023/01/02 14:23:05;;;;;;;84.22;51.97;;;;;;;;;;6277103;22;20000;-68